sensor_id;sensor_type;location;lat;lon;timestamp;pressure;altitude;pressure_sealevel;temperature
47484;BMP280;54076;50.322;18.650;2023-06-24T00:04:40;160554.16;;;15.21
47484;BMP280;54076;50.322;18.650;2023-06-24T00:09:41;160741.53;;;15.32
47484;BMP280;54076;50.322;18.650;2023-06-24T00:14:42;160742.44;;;15.32
47484;BMP280;54076;50.322;18.650;2023-06-24T00:19:43;160348.33;;;15.10
47484;BMP280;54076;50.322;18.650;2023-06-24T00:24:47;160478.98;;;15.17
47484;BMP280;54076;50.322;18.650;2023-06-24T00:29:48;160529.52;;;15.20
47484;BMP280;54076;50.322;18.650;2023-06-24T00:34:49;160359.14;;;15.11
47484;BMP280;54076;50.322;18.650;2023-06-24T00:39:51;159979.48;;;14.89
47484;BMP280;54076;50.322;18.650;2023-06-24T00:44:52;160085.05;;;14.95
47484;BMP280;54076;50.322;18.650;2023-06-24T00:49:53;159874.72;;;14.84
47484;BMP280;54076;50.322;18.650;2023-06-24T00:54:54;160016.58;;;14.92
47484;BMP280;54076;50.322;18.650;2023-06-24T00:59:56;159939.91;;;14.87
47484;BMP280;54076;50.322;18.650;2023-06-24T01:04:57;160078.56;;;14.94
47484;BMP280;54076;50.322;18.650;2023-06-24T01:09:59;160073.48;;;14.94
47484;BMP280;54076;50.322;18.650;2023-06-24T01:15:03;159912.36;;;14.85
47484;BMP280;54076;50.322;18.650;2023-06-24T01:20:15;159823.09;;;14.80
47484;BMP280;54076;50.322;18.650;2023-06-24T01:31:48;159663.66;;;14.70
47484;BMP280;54076;50.322;18.650;2023-06-24T01:37:10;159772.13;;;14.76
47484;BMP280;54076;50.322;18.650;2023-06-24T01:42:14;159769.84;;;14.75
47484;BMP280;54076;50.322;18.650;2023-06-24T01:47:19;159756.72;;;14.73
47484;BMP280;54076;50.322;18.650;2023-06-24T01:52:23;159596.45;;;14.61
47484;BMP280;54076;50.322;18.650;2023-06-24T01:57:24;159678.67;;;14.61
47484;BMP280;54076;50.322;18.650;2023-06-24T02:02:26;159741.66;;;14.61
47484;BMP280;54076;50.322;18.650;2023-06-24T02:07:29;159654.66;;;14.55
47484;BMP280;54076;50.322;18.650;2023-06-24T02:12:30;159671.64;;;14.53
47484;BMP280;54076;50.322;18.650;2023-06-24T02:17:31;159550.91;;;14.45
47484;BMP280;54076;50.322;18.650;2023-06-24T02:22:32;159823.58;;;14.57
47484;BMP280;54076;50.322;18.650;2023-06-24T02:27:35;159922.13;;;14.61
47484;BMP280;54076;50.322;18.650;2023-06-24T02:32:36;160203.72;;;14.76
47484;BMP280;54076;50.322;18.650;2023-06-24T02:37:39;160024.22;;;14.64
47484;BMP280;54076;50.322;18.650;2023-06-24T02:42:40;159792.58;;;14.48
47484;BMP280;54076;50.322;18.650;2023-06-24T02:47:44;160025.14;;;14.59
47484;BMP280;54076;50.322;18.650;2023-06-24T02:52:46;159680.58;;;14.37
47484;BMP280;54076;50.322;18.650;2023-06-24T02:57:47;159733.03;;;14.38
47484;BMP280;54076;50.322;18.650;2023-06-24T03:02:49;159870.33;;;14.42
47484;BMP280;54076;50.322;18.650;2023-06-24T03:07:51;159849.08;;;14.37
47484;BMP280;54076;50.322;18.650;2023-06-24T03:12:52;159972.34;;;14.42
47484;BMP280;54076;50.322;18.650;2023-06-24T03:17:53;160010.14;;;14.42
47484;BMP280;54076;50.322;18.650;2023-06-24T03:22:54;159961.08;;;14.34
47484;BMP280;54076;50.322;18.650;2023-06-24T03:27:56;160059.97;;;14.34
47484;BMP280;54076;50.322;18.650;2023-06-24T03:32:57;159988.33;;;14.25
47484;BMP280;54076;50.322;18.650;2023-06-24T03:37:58;160247.67;;;14.35
47484;BMP280;54076;50.322;18.650;2023-06-24T03:42:59;160469.30;;;14.46
47484;BMP280;54076;50.322;18.650;2023-06-24T03:48:00;160461.28;;;14.43
47484;BMP280;54076;50.322;18.650;2023-06-24T03:53:03;160750.66;;;14.57
47484;BMP280;54076;50.322;18.650;2023-06-24T03:58:04;160820.41;;;14.62
47484;BMP280;54076;50.322;18.650;2023-06-24T04:03:08;160850.72;;;14.65
47484;BMP280;54076;50.322;18.650;2023-06-24T04:08:09;160739.09;;;14.59
47484;BMP280;54076;50.322;18.650;2023-06-24T04:13:10;160574.81;;;14.48
47484;BMP280;54076;50.322;18.650;2023-06-24T04:18:11;160749.84;;;14.56
47484;BMP280;54076;50.322;18.650;2023-06-24T04:23:13;160635.53;;;14.50
47484;BMP280;54076;50.322;18.650;2023-06-24T04:28:15;160472.09;;;14.44
47484;BMP280;54076;50.322;18.650;2023-06-24T04:33:15;160429.27;;;14.42
47484;BMP280;54076;50.322;18.650;2023-06-24T04:38:16;160288.47;;;14.34
47484;BMP280;54076;50.322;18.650;2023-06-24T04:43:19;160258.38;;;14.35
47484;BMP280;54076;50.322;18.650;2023-06-24T04:48:19;160319.78;;;14.38
47484;BMP280;54076;50.322;18.650;2023-06-24T04:53:21;160702.84;;;14.60
47484;BMP280;54076;50.322;18.650;2023-06-24T04:58:22;160711.84;;;14.62
47484;BMP280;54076;50.322;18.650;2023-06-24T05:03:23;160765.25;;;14.64
47484;BMP280;54076;50.322;18.650;2023-06-24T05:08:24;160652.97;;;14.57
47484;BMP280;54076;50.322;18.650;2023-06-24T05:13:28;160484.69;;;14.47
47484;BMP280;54076;50.322;18.650;2023-06-24T05:18:28;160412.70;;;14.43
47484;BMP280;54076;50.322;18.650;2023-06-24T05:23:29;160319.59;;;14.35
47484;BMP280;54076;50.322;18.650;2023-06-24T05:28:30;160155.97;;;14.25
47484;BMP280;54076;50.322;18.650;2023-06-24T05:33:31;160341.34;;;14.35
47484;BMP280;54076;50.322;18.650;2023-06-24T05:38:32;160346.33;;;14.34
47484;BMP280;54076;50.322;18.650;2023-06-24T05:43:33;160813.97;;;14.58
47484;BMP280;54076;50.322;18.650;2023-06-24T05:48:34;160774.16;;;14.52
47484;BMP280;54076;50.322;18.650;2023-06-24T05:53:35;161294.67;;;14.79
47484;BMP280;54076;50.322;18.650;2023-06-24T05:58:36;161125.50;;;14.70
47484;BMP280;54076;50.322;18.650;2023-06-24T06:03:37;161187.03;;;14.82
47484;BMP280;54076;50.322;18.650;2023-06-24T06:08:38;161176.34;;;14.83
47484;BMP280;54076;50.322;18.650;2023-06-24T06:13:38;160533.27;;;14.49
47484;BMP280;54076;50.322;18.650;2023-06-24T06:18:39;160602.69;;;14.51
47484;BMP280;54076;50.322;18.650;2023-06-24T06:23:40;160719.86;;;14.58
47484;BMP280;54076;50.322;18.650;2023-06-24T06:28:41;160629.00;;;14.51
47484;BMP280;54076;50.322;18.650;2023-06-24T06:33:43;160689.06;;;14.53
47484;BMP280;54076;50.322;18.650;2023-06-24T06:38:44;160767.78;;;14.58
47484;BMP280;54076;50.322;18.650;2023-06-24T06:43:45;160982.72;;;14.70
47484;BMP280;54076;50.322;18.650;2023-06-24T06:48:46;161212.34;;;14.82
47484;BMP280;54076;50.322;18.650;2023-06-24T06:53:47;161299.28;;;14.87
47484;BMP280;54076;50.322;18.650;2023-06-24T06:58:47;161203.50;;;14.80
47484;BMP280;54076;50.322;18.650;2023-06-24T07:03:49;161450.52;;;14.97
47484;BMP280;54076;50.322;18.650;2023-06-24T07:08:50;161064.50;;;14.80
47484;BMP280;54076;50.322;18.650;2023-06-24T07:13:51;160810.28;;;14.66
47484;BMP280;54076;50.322;18.650;2023-06-24T07:18:52;160858.63;;;14.68
47484;BMP280;54076;50.322;18.650;2023-06-24T07:23:53;160973.08;;;14.77
47484;BMP280;54076;50.322;18.650;2023-06-24T07:28:57;160748.66;;;14.64
47484;BMP280;54076;50.322;18.650;2023-06-24T07:33:59;161056.25;;;14.81
47484;BMP280;54076;50.322;18.650;2023-06-24T07:39:00;161222.75;;;14.84
47484;BMP280;54076;50.322;18.650;2023-06-24T07:44:01;161448.19;;;14.93
47484;BMP280;54076;50.322;18.650;2023-06-24T07:49:02;161573.09;;;15.05
47484;BMP280;54076;50.322;18.650;2023-06-24T07:54:03;161608.84;;;15.05
47484;BMP280;54076;50.322;18.650;2023-06-24T07:59:04;161441.67;;;14.94
47484;BMP280;54076;50.322;18.650;2023-06-24T08:04:05;161411.84;;;14.89
47484;BMP280;54076;50.322;18.650;2023-06-24T08:09:06;161517.88;;;15.08
47484;BMP280;54076;50.322;18.650;2023-06-24T08:14:07;160925.34;;;14.64
47484;BMP280;54076;50.322;18.650;2023-06-24T08:19:08;161210.28;;;14.79
47484;BMP280;54076;50.322;18.650;2023-06-24T08:24:09;161259.53;;;14.83
47484;BMP280;54076;50.322;18.650;2023-06-24T08:29:10;160974.59;;;14.65
47484;BMP280;54076;50.322;18.650;2023-06-24T08:34:11;160988.42;;;14.65
47484;BMP280;54076;50.322;18.650;2023-06-24T08:39:12;161285.98;;;14.74
47484;BMP280;54076;50.322;18.650;2023-06-24T08:44:13;161774.73;;;14.99
47484;BMP280;54076;50.322;18.650;2023-06-24T08:49:27;161470.30;;;14.87
47484;BMP280;54076;50.322;18.650;2023-06-24T08:54:30;161449.03;;;14.89
47484;BMP280;54076;50.322;18.650;2023-06-24T08:59:36;161332.13;;;14.78
47484;BMP280;54076;50.322;18.650;2023-06-24T09:04:38;161300.38;;;14.69
47484;BMP280;54076;50.322;18.650;2023-06-24T09:09:43;161280.02;;;14.85
47484;BMP280;54076;50.322;18.650;2023-06-24T09:14:49;161037.88;;;14.81
47484;BMP280;54076;50.322;18.650;2023-06-24T09:19:51;160508.33;;;14.45
47484;BMP280;54076;50.322;18.650;2023-06-24T09:24:53;160336.20;;;14.25
47484;BMP280;54076;50.322;18.650;2023-06-24T09:29:54;160643.81;;;14.40
47484;BMP280;54076;50.322;18.650;2023-06-24T09:34:56;160398.16;;;14.29
47484;BMP280;54076;50.322;18.650;2023-06-24T09:39:57;160678.28;;;14.42
47484;BMP280;54076;50.322;18.650;2023-06-24T09:44:58;161036.95;;;14.63
47484;BMP280;54076;50.322;18.650;2023-06-24T09:50:04;161773.02;;;15.00
47484;BMP280;54076;50.322;18.650;2023-06-24T09:55:07;161358.13;;;14.73
47484;BMP280;54076;50.322;18.650;2023-06-24T10:00:09;161488.59;;;14.84
47484;BMP280;54076;50.322;18.650;2023-06-24T10:05:13;161144.44;;;14.69
47484;BMP280;54076;50.322;18.650;2023-06-24T10:10:14;161026.91;;;14.62
47484;BMP280;54076;50.322;18.650;2023-06-24T10:15:15;161006.84;;;14.61
47484;BMP280;54076;50.322;18.650;2023-06-24T10:20:26;160961.03;;;14.65
47484;BMP280;54076;50.322;18.650;2023-06-24T10:25:36;160561.98;;;14.46
47484;BMP280;54076;50.322;18.650;2023-06-24T10:30:37;160611.41;;;14.51
47484;BMP280;54076;50.322;18.650;2023-06-24T10:35:42;160491.41;;;14.50
47484;BMP280;54076;50.322;18.650;2023-06-24T10:40:48;160147.59;;;14.32
47484;BMP280;54076;50.322;18.650;2023-06-24T10:45:54;160393.33;;;14.47
47484;BMP280;54076;50.322;18.650;2023-06-24T10:50:55;160463.50;;;14.50
47484;BMP280;54076;50.322;18.650;2023-06-24T10:55:57;160399.03;;;14.47
47484;BMP280;54076;50.322;18.650;2023-06-24T11:01:14;159980.66;;;14.15
47484;BMP280;54076;50.322;18.650;2023-06-24T11:06:16;160214.28;;;14.26
47484;BMP280;54076;50.322;18.650;2023-06-24T11:11:20;160090.66;;;14.16
47484;BMP280;54076;50.322;18.650;2023-06-24T11:16:25;159809.25;;;14.02
47484;BMP280;54076;50.322;18.650;2023-06-24T11:21:30;159782.05;;;14.02
47484;BMP280;54076;50.322;18.650;2023-06-24T11:26:33;159242.28;;;13.71
47484;BMP280;54076;50.322;18.650;2023-06-24T11:31:34;159480.91;;;13.83
47484;BMP280;54076;50.322;18.650;2023-06-24T11:36:36;160199.23;;;14.23
47484;BMP280;54076;50.322;18.650;2023-06-24T11:41:37;160059.88;;;14.23
47484;BMP280;54076;50.322;18.650;2023-06-24T11:46:40;160015.33;;;14.24
47484;BMP280;54076;50.322;18.650;2023-06-24T11:51:49;159860.19;;;14.18
47484;BMP280;54076;50.322;18.650;2023-06-24T11:56:51;159834.22;;;14.20
47484;BMP280;54076;50.322;18.650;2023-06-24T12:01:58;159628.88;;;14.12
47484;BMP280;54076;50.322;18.650;2023-06-24T12:07:00;159932.91;;;14.27
47484;BMP280;54076;50.322;18.650;2023-06-24T12:12:01;160095.78;;;14.35
47484;BMP280;54076;50.322;18.650;2023-06-24T12:17:02;160345.63;;;14.48
47484;BMP280;54076;50.322;18.650;2023-06-24T12:22:03;160696.95;;;14.69
47484;BMP280;54076;50.322;18.650;2023-06-24T12:27:04;160381.56;;;14.53
47484;BMP280;54076;50.322;18.650;2023-06-24T12:32:06;160349.97;;;14.51
47484;BMP280;54076;50.322;18.650;2023-06-24T12:37:07;160981.16;;;14.87
47484;BMP280;54076;50.322;18.650;2023-06-24T12:42:08;161095.27;;;14.98
47484;BMP280;54076;50.322;18.650;2023-06-24T12:47:09;161011.02;;;14.95
47484;BMP280;54076;50.322;18.650;2023-06-24T12:52:12;161191.11;;;15.08
47484;BMP280;54076;50.322;18.650;2023-06-24T12:57:15;161047.17;;;15.04
47484;BMP280;54076;50.322;18.650;2023-06-24T13:02:16;160630.88;;;14.82
47484;BMP280;54076;50.322;18.650;2023-06-24T13:07:17;160476.70;;;14.77
47484;BMP280;54076;50.322;18.650;2023-06-24T13:12:19;160426.28;;;14.75
47484;BMP280;54076;50.322;18.650;2023-06-24T13:17:20;159988.28;;;14.50
47484;BMP280;54076;50.322;18.650;2023-06-24T13:22:21;160042.16;;;14.52
47484;BMP280;54076;50.322;18.650;2023-06-24T13:27:22;159508.75;;;14.25
47484;BMP280;54076;50.322;18.650;2023-06-24T13:32:23;159398.75;;;14.21
47484;BMP280;54076;50.322;18.650;2023-06-24T13:37:24;159423.34;;;14.21
47484;BMP280;54076;50.322;18.650;2023-06-24T13:42:26;159718.41;;;14.35
47484;BMP280;54076;50.322;18.650;2023-06-24T13:47:26;159548.61;;;14.26
47484;BMP280;54076;50.322;18.650;2023-06-24T13:52:27;159602.95;;;14.29
47484;BMP280;54076;50.322;18.650;2023-06-24T13:57:28;159350.58;;;14.14
47484;BMP280;54076;50.322;18.650;2023-06-24T14:02:29;159158.66;;;14.01
47484;BMP280;54076;50.322;18.650;2023-06-24T14:07:30;159288.11;;;14.07
47484;BMP280;54076;50.322;18.650;2023-06-24T14:12:31;159593.47;;;14.20
47484;BMP280;54076;50.322;18.650;2023-06-24T14:17:32;160029.83;;;14.46
47484;BMP280;54076;50.322;18.650;2023-06-24T14:22:33;159451.31;;;14.15
47484;BMP280;54076;50.322;18.650;2023-06-24T14:27:34;159503.94;;;14.19
47484;BMP280;54076;50.322;18.650;2023-06-24T14:32:35;159405.78;;;14.14
47484;BMP280;54076;50.322;18.650;2023-06-24T14:37:36;159614.53;;;14.25
47484;BMP280;54076;50.322;18.650;2023-06-24T14:42:36;159992.30;;;14.49
47484;BMP280;54076;50.322;18.650;2023-06-24T14:47:37;159540.66;;;14.30
47484;BMP280;54076;50.322;18.650;2023-06-24T14:52:38;159053.94;;;14.06
47484;BMP280;54076;50.322;18.650;2023-06-24T14:57:39;158885.02;;;13.94
47484;BMP280;54076;50.322;18.650;2023-06-24T15:02:40;158987.17;;;13.97
47484;BMP280;54076;50.322;18.650;2023-06-24T15:07:41;159010.89;;;13.96
47484;BMP280;54076;50.322;18.650;2023-06-24T15:12:42;159247.13;;;14.13
47484;BMP280;54076;50.322;18.650;2023-06-24T15:17:43;158492.34;;;13.76
47484;BMP280;54076;50.322;18.650;2023-06-24T15:22:45;158641.27;;;13.86
47484;BMP280;54076;50.322;18.650;2023-06-24T15:27:46;158942.53;;;14.03
47484;BMP280;54076;50.322;18.650;2023-06-24T15:32:47;158850.05;;;13.98
47484;BMP280;54076;50.322;18.650;2023-06-24T15:37:48;158946.66;;;14.01
47484;BMP280;54076;50.322;18.650;2023-06-24T15:42:49;158990.95;;;14.03
47484;BMP280;54076;50.322;18.650;2023-06-24T15:47:50;159135.11;;;14.07
47484;BMP280;54076;50.322;18.650;2023-06-24T15:52:51;159361.34;;;14.15
47484;BMP280;54076;50.322;18.650;2023-06-24T15:57:52;159563.67;;;14.19
47484;BMP280;54076;50.322;18.650;2023-06-24T16:02:53;159645.28;;;14.20
47484;BMP280;54076;50.322;18.650;2023-06-24T16:07:54;160054.03;;;14.42
47484;BMP280;54076;50.322;18.650;2023-06-24T16:12:54;160050.95;;;14.41
47484;BMP280;54076;50.322;18.650;2023-06-24T16:17:55;160253.45;;;14.54
47484;BMP280;54076;50.322;18.650;2023-06-24T16:22:56;159802.45;;;14.33
47484;BMP280;54076;50.322;18.650;2023-06-24T16:27:57;159487.88;;;14.19
47484;BMP280;54076;50.322;18.650;2023-06-24T16:32:58;159313.61;;;14.13
47484;BMP280;54076;50.322;18.650;2023-06-24T16:37:59;159631.88;;;14.28
47484;BMP280;54076;50.322;18.650;2023-06-24T16:43:00;159997.59;;;14.47
47484;BMP280;54076;50.322;18.650;2023-06-24T16:48:01;159950.25;;;14.45
47484;BMP280;54076;50.322;18.650;2023-06-24T16:53:02;159999.72;;;14.41
47484;BMP280;54076;50.322;18.650;2023-06-24T16:58:03;161412.84;;;14.96
47484;BMP280;54076;50.322;18.650;2023-06-24T17:03:04;162647.70;;;15.77
47484;BMP280;54076;50.322;18.650;2023-06-24T17:08:06;163394.08;;;16.14
47484;BMP280;54076;50.322;18.650;2023-06-24T17:13:07;166953.39;;;18.52
47484;BMP280;54076;50.322;18.650;2023-06-24T17:18:08;170752.50;;;21.74
47484;BMP280;54076;50.322;18.650;2023-06-24T17:23:09;172463.06;;;23.33
47484;BMP280;54076;50.322;18.650;2023-06-24T17:28:10;173430.00;;;24.30
47484;BMP280;54076;50.322;18.650;2023-06-24T17:33:11;172925.98;;;23.81
47484;BMP280;54076;50.322;18.650;2023-06-24T17:38:12;172114.14;;;23.04
47484;BMP280;54076;50.322;18.650;2023-06-24T17:43:13;171429.80;;;22.40
47484;BMP280;54076;50.322;18.650;2023-06-24T17:48:13;171650.20;;;22.62
47484;BMP280;54076;50.322;18.650;2023-06-24T17:53:14;170641.66;;;21.72
47484;BMP280;54076;50.322;18.650;2023-06-24T17:58:16;170357.73;;;21.48
47484;BMP280;54076;50.322;18.650;2023-06-24T18:03:17;169445.80;;;20.72
47484;BMP280;54076;50.322;18.650;2023-06-24T18:08:18;168789.72;;;20.20
47484;BMP280;54076;50.322;18.650;2023-06-24T18:13:20;168631.98;;;20.09
47484;BMP280;54076;50.322;18.650;2023-06-24T18:18:21;167736.34;;;19.38
47484;BMP280;54076;50.322;18.650;2023-06-24T18:23:22;167149.59;;;18.84
47484;BMP280;54076;50.322;18.650;2023-06-24T18:28:23;165671.81;;;17.90
47484;BMP280;54076;50.322;18.650;2023-06-24T18:33:24;164565.53;;;17.13
47484;BMP280;54076;50.322;18.650;2023-06-24T18:38:25;163430.34;;;16.52
47484;BMP280;54076;50.322;18.650;2023-06-24T18:43:26;161824.16;;;15.70
47484;BMP280;54076;50.322;18.650;2023-06-24T18:48:30;160224.58;;;14.91
47484;BMP280;54076;50.322;18.650;2023-06-24T18:53:32;159320.64;;;14.44
47484;BMP280;54076;50.322;18.650;2023-06-24T18:58:33;158716.45;;;14.00
47484;BMP280;54076;50.322;18.650;2023-06-24T19:03:34;158520.44;;;13.87
47484;BMP280;54076;50.322;18.650;2023-06-24T19:08:35;157941.08;;;13.54
47484;BMP280;54076;50.322;18.650;2023-06-24T19:13:36;157423.88;;;13.26
47484;BMP280;54076;50.322;18.650;2023-06-24T19:18:37;157310.02;;;13.19
47484;BMP280;54076;50.322;18.650;2023-06-24T19:23:37;157566.55;;;13.30
47484;BMP280;54076;50.322;18.650;2023-06-24T19:28:38;157190.77;;;13.11
47484;BMP280;54076;50.322;18.650;2023-06-24T19:33:39;156411.69;;;12.72
47484;BMP280;54076;50.322;18.650;2023-06-24T19:38:40;156529.25;;;12.76
47484;BMP280;54076;50.322;18.650;2023-06-24T19:43:47;156334.61;;;12.65
47484;BMP280;54076;50.322;18.650;2023-06-24T19:48:48;156146.34;;;12.55
47484;BMP280;54076;50.322;18.650;2023-06-24T19:53:49;156052.11;;;12.49
47484;BMP280;54076;50.322;18.650;2023-06-24T19:58:51;155913.23;;;12.42
47484;BMP280;54076;50.322;18.650;2023-06-24T20:03:52;156101.41;;;12.51
47484;BMP280;54076;50.322;18.650;2023-06-24T20:08:53;155675.42;;;12.32
47484;BMP280;54076;50.322;18.650;2023-06-24T20:13:54;155871.50;;;12.40
47484;BMP280;54076;50.322;18.650;2023-06-24T20:18:55;155279.13;;;12.11
47484;BMP280;54076;50.322;18.650;2023-06-24T20:23:56;155420.48;;;12.17
47484;BMP280;54076;50.322;18.650;2023-06-24T20:28:57;154916.11;;;11.90
47484;BMP280;54076;50.322;18.650;2023-06-24T20:33:58;154964.97;;;11.92
47484;BMP280;54076;50.322;18.650;2023-06-24T20:38:59;155003.34;;;11.94
47484;BMP280;54076;50.322;18.650;2023-06-24T20:44:00;154763.66;;;11.80
47484;BMP280;54076;50.322;18.650;2023-06-24T20:49:02;154500.16;;;11.67
47484;BMP280;54076;50.322;18.650;2023-06-24T20:54:03;154181.77;;;11.49
47484;BMP280;54076;50.322;18.650;2023-06-24T20:59:04;154036.63;;;11.41
47484;BMP280;54076;50.322;18.650;2023-06-24T21:04:04;154122.80;;;11.45
47484;BMP280;54076;50.322;18.650;2023-06-24T21:09:07;154274.16;;;11.52
47484;BMP280;54076;50.322;18.650;2023-06-24T21:14:07;153806.08;;;11.29
47484;BMP280;54076;50.322;18.650;2023-06-24T21:19:08;153650.91;;;11.19
47484;BMP280;54076;50.322;18.650;2023-06-24T21:24:09;153656.91;;;11.19
47484;BMP280;54076;50.322;18.650;2023-06-24T21:29:10;153589.47;;;11.15
47484;BMP280;54076;50.322;18.650;2023-06-24T21:34:11;153366.77;;;11.04
47484;BMP280;54076;50.322;18.650;2023-06-24T21:39:12;153368.78;;;11.03
47484;BMP280;54076;50.322;18.650;2023-06-24T21:44:13;153249.69;;;10.97
47484;BMP280;54076;50.322;18.650;2023-06-24T21:49:14;153919.97;;;11.30
47484;BMP280;54076;50.322;18.650;2023-06-24T21:54:16;154552.23;;;11.64
47484;BMP280;54076;50.322;18.650;2023-06-24T21:59:16;154405.66;;;11.57
47484;BMP280;54076;50.322;18.650;2023-06-24T22:04:17;154838.17;;;11.79
47484;BMP280;54076;50.322;18.650;2023-06-24T22:09:18;154537.78;;;11.66
47484;BMP280;54076;50.322;18.650;2023-06-24T22:14:19;154081.47;;;11.43
47484;BMP280;54076;50.322;18.650;2023-06-24T22:19:20;153512.86;;;11.13
47484;BMP280;54076;50.322;18.650;2023-06-24T22:24:21;153495.50;;;11.11
47484;BMP280;54076;50.322;18.650;2023-06-24T22:29:22;152968.81;;;10.86
47484;BMP280;54076;50.322;18.650;2023-06-24T22:34:23;152675.83;;;10.75
47484;BMP280;54076;50.322;18.650;2023-06-24T22:39:24;152941.66;;;10.84
47484;BMP280;54076;50.322;18.650;2023-06-24T22:44:25;152572.67;;;10.71
47484;BMP280;54076;50.322;18.650;2023-06-24T22:49:26;152516.91;;;10.68
47484;BMP280;54076;50.322;18.650;2023-06-24T22:54:29;152156.23;;;10.53
47484;BMP280;54076;50.322;18.650;2023-06-24T22:59:31;152018.44;;;10.47
47484;BMP280;54076;50.322;18.650;2023-06-24T23:04:32;152058.88;;;10.48
47484;BMP280;54076;50.322;18.650;2023-06-24T23:09:33;152117.28;;;10.51
47484;BMP280;54076;50.322;18.650;2023-06-24T23:14:35;151594.28;;;10.31
47484;BMP280;54076;50.322;18.650;2023-06-24T23:19:37;151443.91;;;10.23
47484;BMP280;54076;50.322;18.650;2023-06-24T23:24:39;151277.08;;;10.16
47484;BMP280;54076;50.322;18.650;2023-06-24T23:29:41;151068.66;;;10.07
47484;BMP280;54076;50.322;18.650;2023-06-24T23:34:48;151082.00;;;10.07
47484;BMP280;54076;50.322;18.650;2023-06-24T23:39:49;150855.44;;;9.98
47484;BMP280;54076;50.322;18.650;2023-06-24T23:44:50;150858.95;;;9.98
47484;BMP280;54076;50.322;18.650;2023-06-24T23:49:51;150834.75;;;9.97
47484;BMP280;54076;50.322;18.650;2023-06-24T23:54:52;150725.08;;;9.92
47484;BMP280;54076;50.322;18.650;2023-06-24T23:59:53;150824.03;;;9.96
